createdAt,value
2018-08-06T04:46:42.540Z,65.30
2018-08-06T04:50:45.884Z,62.70
2018-08-06T04:54:49.235Z,62.20
2018-08-06T04:58:53.201Z,64.20
2018-08-06T05:02:56.538Z,65.60
2018-08-06T05:06:59.951Z,61.10
2018-08-06T05:11:03.323Z,62.80
2018-08-06T05:15:06.731Z,62.80
2018-08-06T05:19:10.033Z,63.00
2018-08-06T05:23:13.392Z,63.30
2018-08-06T05:27:16.735Z,61.60
2018-08-06T05:31:28.350Z,61.30
2018-08-06T05:35:31.695Z,63.20
2018-08-06T05:39:35.023Z,63.10
2018-08-06T05:43:38.984Z,62.20
2018-08-06T05:47:42.336Z,62.20
2018-08-06T05:51:50.007Z,61.30
2018-08-06T05:55:53.344Z,63.10
2018-08-06T05:59:56.686Z,64.30
2018-08-06T06:04:00.412Z,61.80
2018-08-06T06:08:03.788Z,61.00
2018-08-06T06:12:07.200Z,64.40
2018-08-06T06:16:10.558Z,63.90
2018-08-06T06:20:14.333Z,64.40
2018-08-06T06:24:17.687Z,62.00
2018-08-06T06:28:21.175Z,59.80
2018-08-06T06:32:24.522Z,61.10
2018-08-06T06:36:28.120Z,61.80
2018-08-06T06:40:32.336Z,60.80
2018-08-06T06:44:36.293Z,60.70
2018-08-06T06:48:39.696Z,64.40
2018-08-06T06:52:43.032Z,61.40
2018-08-06T06:56:46.786Z,61.00
2018-08-06T07:00:50.135Z,60.60
2018-08-06T07:04:53.969Z,59.50
2018-08-06T07:08:57.343Z,62.20
2018-08-06T07:13:02.304Z,59.50
2018-08-06T07:17:05.691Z,63.20
2018-08-06T07:21:09.054Z,60.10
2018-08-06T07:25:12.768Z,62.30
2018-08-06T07:29:16.107Z,61.60
2018-08-06T07:33:19.450Z,59.90
2018-08-06T07:37:23.353Z,61.20
2018-08-06T07:41:28.091Z,60.00
2018-08-06T07:45:32.258Z,61.00
2018-08-06T07:49:35.727Z,59.70
2018-08-06T07:53:39.006Z,61.30
2018-08-06T07:57:42.370Z,60.20
2018-08-06T08:01:45.721Z,60.00
2018-08-06T08:05:49.086Z,59.60
2018-08-06T08:09:52.479Z,61.30
2018-08-06T08:13:56.139Z,61.10
2018-08-06T08:17:59.485Z,60.10
2018-08-06T08:22:02.846Z,60.50
2018-08-06T08:26:06.224Z,59.50
2018-08-06T08:30:11.353Z,59.80
2018-08-06T08:34:14.743Z,59.10
2018-08-06T08:38:18.602Z,59.50
2018-08-06T08:42:28.759Z,59.50
2018-08-06T08:46:32.370Z,59.00
2018-08-06T08:50:35.773Z,59.70
2018-08-06T08:54:39.111Z,58.70
2018-08-06T08:58:42.545Z,58.50
2018-08-06T09:02:46.935Z,58.50
2018-08-06T09:06:50.242Z,58.60
2018-08-06T09:10:54.623Z,58.20
2018-08-06T09:14:57.951Z,57.50
2018-08-06T09:19:01.329Z,57.30
2018-08-06T09:23:04.673Z,57.50
2018-08-06T09:27:07.996Z,57.30
2018-08-06T09:31:11.329Z,56.90
2018-08-06T09:35:15.201Z,57.20
2018-08-06T09:39:19.166Z,54.70
2018-08-06T09:43:22.598Z,56.60
2018-08-06T09:47:25.956Z,53.70
2018-08-06T09:51:29.338Z,56.10
2018-08-06T09:55:32.720Z,55.80
2018-08-06T09:59:36.089Z,56.30
2018-08-06T10:03:40.291Z,55.60
2018-08-06T10:07:45.373Z,54.00
2018-08-06T10:11:48.850Z,55.60
2018-08-06T10:15:52.167Z,54.30
2018-08-06T10:19:55.520Z,53.60
2018-08-06T10:23:59.171Z,52.40
2018-08-06T10:28:02.664Z,53.30
2018-08-06T10:32:06.037Z,52.70
2018-08-06T10:36:09.806Z,48.50
2018-08-06T10:40:17.372Z,51.20
2018-08-06T10:44:21.496Z,50.50
2018-08-06T10:48:24.991Z,50.70
2018-08-06T10:52:28.309Z,52.20
2018-08-06T10:56:31.652Z,50.40
2018-08-06T11:00:35.038Z,51.90
2018-08-06T11:04:38.429Z,50.40
2018-08-06T11:08:41.798Z,45.60
2018-08-06T11:12:45.155Z,47.80
2018-08-06T11:16:48.503Z,49.60
2018-08-06T11:20:51.871Z,50.40
2018-08-06T11:24:55.215Z,47.90
2018-08-06T11:28:58.566Z,49.20
2018-08-06T11:37:05.028Z,49.60
2018-08-06T11:41:08.395Z,43.30
2018-08-06T11:45:13.895Z,48.60
2018-08-06T11:49:17.248Z,48.90
2018-08-06T11:53:20.584Z,46.40
2018-08-06T11:57:24.149Z,49.50
2018-08-06T12:01:27.540Z,44.00
2018-08-06T12:05:30.874Z,48.00
2018-08-06T12:09:34.204Z,47.40
2018-08-06T12:13:37.594Z,46.40
2018-08-06T12:17:41.548Z,46.00
2018-08-06T12:21:44.895Z,45.90
2018-08-06T12:25:48.602Z,47.30
2018-08-06T12:29:51.942Z,46.70
2018-08-06T12:33:55.334Z,43.90
2018-08-06T12:37:58.670Z,44.00
2018-08-06T12:42:02.132Z,43.10
2018-08-06T12:46:05.933Z,45.80
2018-08-06T12:50:10.544Z,45.80
2018-08-06T12:54:13.878Z,45.70
2018-08-06T12:58:17.220Z,46.00
2018-08-06T13:02:20.721Z,42.10
2018-08-06T13:06:24.166Z,45.00
2018-08-06T13:10:27.535Z,40.00
2018-08-06T13:14:30.882Z,45.60
2018-08-06T13:18:34.262Z,44.20
2018-08-06T13:22:37.618Z,46.10
2018-08-06T13:26:41.015Z,42.60
2018-08-06T13:30:44.334Z,42.70
2018-08-06T13:34:47.692Z,44.90
2018-08-06T13:38:51.094Z,46.30
2018-08-06T13:42:54.410Z,46.30
2018-08-06T13:46:57.899Z,43.30
2018-08-06T13:51:01.132Z,39.80
2018-08-06T13:55:04.718Z,44.00
2018-08-06T13:59:08.168Z,43.90
2018-08-06T14:03:11.487Z,43.30
2018-08-06T14:07:14.829Z,38.70
2018-08-06T14:11:18.243Z,39.10
2018-08-06T14:15:21.627Z,36.60
2018-08-06T14:19:24.966Z,42.00
2018-08-06T14:23:28.312Z,43.20
2018-08-06T14:27:34.656Z,43.10
2018-08-06T14:31:38.030Z,39.30
2018-08-06T14:35:42.275Z,41.80
2018-08-06T14:39:45.732Z,43.50
2018-08-06T14:43:49.115Z,38.40
2018-08-06T14:47:52.472Z,41.80
2018-08-06T14:51:57.043Z,41.00
2018-08-06T14:56:00.481Z,41.50
2018-08-06T15:00:07.775Z,42.10
2018-08-06T15:04:12.283Z,35.90
2018-08-06T15:08:15.940Z,37.90
2018-08-06T15:12:19.396Z,37.60
2018-08-06T15:16:23.207Z,38.30
2018-08-06T15:20:26.711Z,41.20
2018-08-06T15:24:30.080Z,37.60
2018-08-06T15:28:33.638Z,38.30
2018-08-06T15:32:37.135Z,32.40
2018-08-06T15:36:40.639Z,40.80
2018-08-06T15:40:44.370Z,38.30
2018-08-06T15:44:48.399Z,39.00
2018-08-06T15:48:51.872Z,38.10
2018-08-06T15:52:55.275Z,37.60
2018-08-06T15:56:58.992Z,34.70
2018-08-06T16:01:02.742Z,39.10
2018-08-06T16:05:07.032Z,36.60
2018-08-06T16:09:10.444Z,40.20
2018-08-06T16:13:13.929Z,31.60
2018-08-06T16:17:17.549Z,35.40
2018-08-06T16:21:21.097Z,31.30
2018-08-06T16:25:24.815Z,32.30
2018-08-06T16:29:28.244Z,37.70
2018-08-06T16:33:31.615Z,35.60
2018-08-06T16:37:34.981Z,29.20
2018-08-06T16:41:38.643Z,28.80
2018-08-06T16:45:42.047Z,28.30
2018-08-06T16:49:45.691Z,30.40
2018-08-06T16:53:49.172Z,30.20
2018-08-06T16:57:52.818Z,30.30
2018-08-06T17:01:56.253Z,36.20
2018-08-06T17:05:59.750Z,34.10
2018-08-06T17:10:03.352Z,30.80
2018-08-06T17:14:07.063Z,31.80
2018-08-06T17:18:10.583Z,30.60
2018-08-06T17:22:14.011Z,33.10
2018-08-06T17:26:17.436Z,32.30
2018-08-06T17:30:20.947Z,28.00
2018-08-06T17:34:25.255Z,31.10
2018-08-06T17:38:28.835Z,33.80
2018-08-06T17:42:32.232Z,33.10
2018-08-06T17:46:35.775Z,32.80
2018-08-06T17:50:39.660Z,31.00
2018-08-06T17:54:43.095Z,33.40
2018-08-06T17:58:46.605Z,34.70
2018-08-06T18:02:50.123Z,34.20
2018-08-06T18:06:53.458Z,35.50
2018-08-06T18:10:56.835Z,35.40
2018-08-06T18:15:01.562Z,35.80
2018-08-06T18:23:08.065Z,36.90
2018-08-06T18:27:11.443Z,37.10
2018-08-06T18:31:14.892Z,37.60
2018-08-06T18:35:19.337Z,37.60
2018-08-06T18:39:22.699Z,38.00
2018-08-06T18:43:26.097Z,38.60
2018-08-06T18:47:29.997Z,39.00
2018-08-06T18:51:33.859Z,39.10
2018-08-06T18:55:37.376Z,38.90
2018-08-06T18:59:40.764Z,39.30
2018-08-06T19:03:44.135Z,40.10
2018-08-06T19:07:47.567Z,40.00
2018-08-06T19:11:50.945Z,40.30
2018-08-06T19:15:54.316Z,40.60
2018-08-06T19:19:57.696Z,40.90
2018-08-06T19:24:06.440Z,41.70
2018-08-06T19:28:09.815Z,41.60
2018-08-06T19:32:13.176Z,41.50
2018-08-06T19:36:16.527Z,42.00
2018-08-06T19:40:19.891Z,42.10
2018-08-06T19:44:23.239Z,42.40
2018-08-06T19:48:26.599Z,42.60
2018-08-06T19:52:30.036Z,42.50
2018-08-06T19:56:34.428Z,42.90
2018-08-06T20:00:38.180Z,42.80
2018-08-06T20:04:41.631Z,43.60
2018-08-06T20:08:45.052Z,44.10
2018-08-06T20:12:48.410Z,44.00
2018-08-06T20:16:51.870Z,44.20
2018-08-06T20:20:55.366Z,44.60
2018-08-06T20:24:58.735Z,44.30
2018-08-06T20:29:02.564Z,45.10
2018-08-06T20:33:06.455Z,45.00
2018-08-06T20:37:09.839Z,45.00
2018-08-06T20:41:13.204Z,45.30
2018-08-06T20:45:21.097Z,45.50
2018-08-06T20:49:24.430Z,45.30
2018-08-06T20:53:27.771Z,45.80
2018-08-06T20:57:31.169Z,46.10
2018-08-06T21:01:34.627Z,46.30
2018-08-06T21:05:38.031Z,46.10
2018-08-06T21:09:41.430Z,47.80
2018-08-06T21:13:44.792Z,46.60
2018-08-06T21:17:48.272Z,47.20
2018-08-06T21:21:51.784Z,47.20
2018-08-06T21:25:55.110Z,47.40
2018-08-06T21:29:58.458Z,48.10
2018-08-06T21:34:01.879Z,48.10
2018-08-06T21:38:05.278Z,48.10
2018-08-06T21:42:08.668Z,47.80
2018-08-06T21:46:12.031Z,47.40
2018-08-06T21:50:15.766Z,48.20
2018-08-06T21:54:19.577Z,48.90
2018-08-06T21:58:24.917Z,48.60
2018-08-06T22:02:28.501Z,49.40
2018-08-06T22:06:31.838Z,49.60
2018-08-06T22:10:35.232Z,49.00
2018-08-06T22:14:38.744Z,49.00
2018-08-06T22:18:42.246Z,49.30
2018-08-06T22:22:45.683Z,48.70
2018-08-06T22:26:49.011Z,49.70
2018-08-06T22:30:52.362Z,49.60
2018-08-06T22:34:55.861Z,48.60
2018-08-06T22:38:59.205Z,49.80
2018-08-06T22:43:02.542Z,49.70
2018-08-06T22:47:06.366Z,49.80
2018-08-06T22:51:09.805Z,48.80
2018-08-06T22:55:13.673Z,50.20
2018-08-06T22:59:17.070Z,48.90
2018-08-06T23:03:20.763Z,50.00
2018-08-06T23:07:24.103Z,50.40
2018-08-06T23:11:27.559Z,51.40
2018-08-06T23:15:30.891Z,51.10
2018-08-06T23:23:37.531Z,50.40
2018-08-06T23:27:40.862Z,50.50
2018-08-06T23:31:44.380Z,52.40
2018-08-06T23:35:47.740Z,50.30
2018-08-06T23:39:51.686Z,52.00
2018-08-06T23:43:55.308Z,51.70
2018-08-06T23:47:58.655Z,52.60
2018-08-06T23:52:02.001Z,50.80
2018-08-06T23:56:05.477Z,52.20
